createdAt,value
2018-10-19T00:00:10.094Z,8.33
2018-10-19T00:02:38.967Z,8.31
2018-10-19T00:05:07.872Z,8.28
2018-10-19T00:07:36.987Z,8.24
2018-10-19T00:10:06.881Z,8.23
2018-10-19T00:12:35.768Z,8.21
2018-10-19T00:15:04.986Z,8.19
2018-10-19T00:17:34.121Z,8.16
2018-10-19T00:20:03.038Z,8.15
2018-10-19T00:22:32.247Z,8.14
2018-10-19T00:25:01.014Z,8.12
2018-10-19T00:27:29.953Z,8.11
2018-10-19T00:29:58.755Z,8.07
2018-10-19T00:32:27.933Z,8.05
2018-10-19T00:34:57.244Z,8.04
2018-10-19T00:37:26.095Z,8.02
2018-10-19T00:39:55.029Z,7.99
2018-10-19T00:42:23.938Z,7.97
2018-10-19T00:44:53.389Z,7.94
2018-10-19T00:47:22.220Z,7.92
2018-10-19T00:49:51.080Z,7.90
2018-10-19T00:52:20.418Z,7.87
2018-10-19T00:54:49.265Z,7.84
2018-10-19T00:57:18.071Z,7.80
2018-10-19T00:59:46.846Z,7.76
2018-10-19T01:02:16.110Z,7.75
2018-10-19T01:04:44.908Z,7.74
2018-10-19T01:07:14.604Z,7.73
2018-10-19T01:09:43.742Z,7.72
2018-10-19T01:12:12.973Z,7.72
2018-10-19T01:14:41.747Z,7.70
2018-10-19T01:17:10.675Z,7.71
2018-10-19T01:19:39.424Z,7.70
2018-10-19T01:22:08.311Z,7.70
2018-10-19T01:24:37.115Z,7.68
2018-10-19T01:27:06.466Z,7.69
2018-10-19T01:29:35.714Z,7.67
2018-10-19T01:32:04.707Z,7.65
2018-10-19T01:34:33.517Z,7.63
2018-10-19T01:37:05.999Z,7.61
2018-10-19T01:39:34.864Z,7.56
2018-10-19T01:42:04.047Z,7.52
2018-10-19T01:44:33.282Z,7.56
2018-10-19T01:47:02.548Z,7.55
2018-10-19T01:49:31.422Z,7.52
2018-10-19T01:52:00.750Z,7.51
2018-10-19T01:54:29.638Z,7.52
2018-10-19T01:56:58.461Z,7.53
2018-10-19T01:59:27.265Z,7.53
2018-10-19T02:01:56.420Z,7.55
2018-10-19T02:04:25.560Z,7.52
2018-10-19T02:06:54.392Z,7.54
2018-10-19T02:09:23.157Z,7.51
2018-10-19T02:11:52.059Z,7.47
2018-10-19T02:14:21.148Z,7.48
2018-10-19T02:16:50.194Z,7.52
2018-10-19T02:19:18.988Z,7.53
2018-10-19T02:21:47.733Z,7.57
2018-10-19T02:24:17.001Z,7.56
2018-10-19T02:26:46.065Z,7.56
2018-10-19T02:29:14.987Z,7.57
2018-10-19T02:31:44.135Z,7.60
2018-10-19T02:34:13.601Z,7.56
2018-10-19T02:36:42.681Z,7.59
2018-10-19T02:39:11.788Z,7.61
2018-10-19T02:41:40.582Z,7.59
2018-10-19T02:44:09.658Z,7.57
2018-10-19T02:46:38.518Z,7.60
2018-10-19T02:49:07.556Z,7.64
2018-10-19T02:51:36.862Z,7.65
2018-10-19T02:54:06.228Z,7.66
2018-10-19T02:56:35.191Z,7.64
2018-10-19T02:59:04.025Z,7.69
2018-10-19T03:01:33.095Z,7.71
2018-10-19T03:04:02.202Z,7.70
2018-10-19T03:06:31.270Z,7.76
2018-10-19T03:09:00.236Z,7.80
2018-10-19T03:11:29.103Z,7.85
2018-10-19T03:13:58.363Z,7.88
2018-10-19T03:16:27.353Z,7.85
2018-10-19T03:18:56.179Z,7.89
2018-10-19T03:21:24.988Z,7.91
2018-10-19T03:23:54.427Z,7.92
2018-10-19T03:26:23.599Z,7.94
2018-10-19T03:28:52.447Z,7.98
2018-10-19T03:31:21.305Z,8.00
2018-10-19T03:33:50.237Z,8.06
2018-10-19T03:36:19.595Z,8.07
2018-10-19T03:38:48.430Z,8.08
2018-10-19T03:41:17.508Z,8.10
2018-10-19T03:43:46.434Z,8.08
2018-10-19T03:46:15.251Z,8.09
2018-10-19T03:48:44.151Z,8.10
2018-10-19T03:51:13.108Z,8.09
2018-10-19T03:53:42.081Z,8.11
2018-10-19T03:56:11.108Z,8.13
2018-10-19T03:58:39.992Z,8.08
2018-10-19T04:01:08.814Z,8.09
2018-10-19T04:03:38.344Z,8.09
2018-10-19T04:06:07.130Z,8.11
2018-10-19T04:08:36.670Z,8.11
2018-10-19T04:11:05.709Z,8.11
2018-10-19T04:13:34.466Z,8.10
2018-10-19T04:16:03.308Z,8.13
2018-10-19T04:18:32.094Z,8.14
2018-10-19T04:21:01.605Z,8.11
2018-10-19T04:23:30.675Z,8.13
2018-10-19T04:26:00.026Z,8.13
2018-10-19T04:28:28.877Z,8.13
2018-10-19T04:30:57.951Z,8.13
2018-10-19T04:33:28.370Z,8.12
2018-10-19T04:35:57.295Z,8.13
2018-10-19T04:38:26.457Z,8.14
2018-10-19T04:40:55.546Z,8.18
2018-10-19T04:43:24.803Z,8.14
2018-10-19T04:45:54.011Z,8.15
2018-10-19T04:48:22.933Z,8.17
2018-10-19T04:50:51.692Z,8.18
2018-10-19T04:53:20.525Z,8.20
2018-10-19T04:55:49.302Z,8.21
2018-10-19T04:58:18.147Z,8.22
2018-10-19T05:00:47.212Z,8.24
2018-10-19T05:03:16.353Z,8.23
2018-10-19T05:05:45.168Z,8.25
2018-10-19T05:08:13.999Z,8.24
2018-10-19T05:10:42.759Z,8.24
2018-10-19T05:13:11.653Z,8.21
2018-10-19T05:15:40.813Z,8.21
2018-10-19T05:18:09.907Z,8.22
2018-10-19T05:20:38.654Z,8.20
2018-10-19T05:23:07.703Z,8.18
2018-10-19T05:25:36.428Z,8.16
2018-10-19T05:28:05.283Z,8.15
2018-10-19T05:30:34.360Z,8.15
2018-10-19T05:33:03.566Z,8.18
2018-10-19T05:35:32.267Z,8.15
2018-10-19T05:38:01.417Z,8.16
2018-10-19T05:40:30.197Z,8.15
2018-10-19T05:42:59.056Z,8.15
2018-10-19T05:45:27.960Z,8.15
2018-10-19T05:47:57.025Z,8.15
2018-10-19T05:50:25.792Z,8.16
2018-10-19T05:52:54.614Z,8.19
2018-10-19T05:55:23.677Z,8.18
2018-10-19T05:57:52.480Z,8.16
2018-10-19T06:00:21.598Z,8.16
2018-10-19T06:02:50.358Z,8.14
2018-10-19T06:05:25.618Z,8.13
2018-10-19T06:07:54.468Z,8.18
2018-10-19T06:10:23.256Z,8.19
2018-10-19T06:12:52.022Z,8.21
2018-10-19T06:15:20.915Z,8.22
2018-10-19T06:17:49.709Z,8.21
2018-10-19T06:20:19.144Z,8.23
2018-10-19T06:22:48.162Z,8.25
2018-10-19T06:25:16.992Z,8.26
2018-10-19T06:27:45.771Z,8.29
2018-10-19T06:30:15.066Z,8.28
2018-10-19T06:32:44.447Z,8.30
2018-10-19T06:35:13.604Z,8.32
2018-10-19T06:37:42.403Z,8.34
2018-10-19T06:40:11.409Z,8.37
2018-10-19T06:42:40.357Z,8.38
2018-10-19T06:45:09.269Z,8.42
2018-10-19T06:47:38.328Z,8.45
2018-10-19T06:50:09.336Z,8.49
2018-10-19T06:52:38.184Z,8.50
2018-10-19T06:55:08.778Z,8.54
2018-10-19T06:57:37.847Z,8.57
2018-10-19T07:00:06.826Z,8.61
2018-10-19T07:02:35.699Z,8.64
2018-10-19T07:05:05.220Z,8.68
2018-10-19T07:07:34.401Z,8.71
2018-10-19T07:10:03.215Z,8.75
2018-10-19T07:12:31.971Z,8.81
2018-10-19T07:15:01.167Z,8.83
2018-10-19T07:17:30.068Z,8.85
2018-10-19T07:19:59.536Z,8.87
2018-10-19T07:22:28.787Z,8.91
2018-10-19T07:24:58.327Z,8.93
2018-10-19T07:27:27.463Z,8.96
2018-10-19T07:29:56.364Z,8.99
2018-10-19T07:32:25.923Z,9.04
2018-10-19T07:34:55.696Z,9.08
2018-10-19T07:37:24.649Z,9.13
2018-10-19T07:39:53.526Z,9.17
2018-10-19T07:42:22.820Z,9.18
2018-10-19T07:44:51.610Z,9.24
2018-10-19T07:47:20.900Z,9.29
2018-10-19T07:49:50.065Z,9.34
2018-10-19T07:52:19.110Z,9.39
2018-10-19T07:54:48.080Z,9.43
2018-10-19T07:57:17.282Z,9.47
2018-10-19T07:59:46.104Z,9.52
2018-10-19T08:02:15.317Z,9.55
2018-10-19T08:04:44.645Z,9.58
2018-10-19T08:07:13.428Z,9.64
2018-10-19T08:09:42.244Z,9.72
2018-10-19T08:12:11.155Z,9.79
2018-10-19T08:14:40.331Z,9.81
2018-10-19T08:17:09.204Z,9.86
2018-10-19T08:19:38.051Z,9.92
2018-10-19T08:22:06.858Z,9.97
2018-10-19T08:24:35.608Z,9.99
2018-10-19T08:27:04.439Z,10.04
2018-10-19T08:29:33.198Z,10.11
2018-10-19T08:32:02.030Z,10.16
2018-10-19T08:34:30.826Z,10.21
2018-10-19T08:36:59.636Z,10.23
2018-10-19T08:39:29.044Z,10.30
2018-10-19T08:41:57.811Z,10.38
2018-10-19T08:44:26.903Z,10.47
2018-10-19T08:46:56.041Z,10.55
2018-10-19T08:49:24.945Z,10.66
2018-10-19T08:51:53.707Z,10.70
2018-10-19T08:54:22.538Z,10.75
2018-10-19T08:56:51.455Z,10.78
2018-10-19T08:59:20.316Z,10.84
2018-10-19T09:01:49.341Z,10.93
2018-10-19T09:04:18.455Z,11.03
2018-10-19T09:06:47.632Z,11.14
2018-10-19T09:09:16.678Z,11.20
2018-10-19T09:11:45.597Z,11.25
2018-10-19T09:14:25.504Z,11.31
2018-10-19T09:16:54.444Z,11.36
2018-10-19T09:19:23.502Z,11.42
2018-10-19T09:21:52.607Z,11.49
2018-10-19T09:24:21.519Z,11.62
2018-10-19T09:26:50.331Z,11.67
2018-10-19T09:29:19.191Z,11.79
2018-10-19T09:31:48.227Z,11.87
2018-10-19T09:34:17.368Z,11.94
2018-10-19T09:36:46.210Z,12.05
2018-10-19T09:39:15.448Z,12.10
2018-10-19T09:41:44.511Z,12.18
2018-10-19T09:44:13.407Z,12.28
2018-10-19T09:46:42.583Z,12.39
2018-10-19T09:49:12.795Z,12.52
2018-10-19T09:51:42.007Z,12.62
2018-10-19T09:54:12.202Z,12.70
2018-10-19T09:56:41.026Z,12.77
2018-10-19T09:59:10.438Z,12.88
2018-10-19T10:01:40.283Z,13.00
2018-10-19T10:04:09.383Z,13.08
2018-10-19T10:06:38.188Z,13.14
2018-10-19T10:09:14.931Z,13.19
2018-10-19T10:11:43.667Z,13.29
2018-10-19T10:14:12.577Z,13.38
2018-10-19T10:16:41.421Z,13.46
2018-10-19T10:19:10.614Z,13.55
2018-10-19T10:21:39.905Z,13.69
2018-10-19T10:24:08.814Z,13.80
2018-10-19T10:26:37.649Z,13.93
2018-10-19T10:29:06.914Z,14.10
2018-10-19T10:31:36.748Z,14.26
2018-10-19T10:34:06.189Z,14.36
2018-10-19T10:36:35.450Z,14.45
2018-10-19T10:39:05.132Z,14.52
2018-10-19T10:41:33.867Z,14.67
2018-10-19T10:44:02.695Z,14.76
2018-10-19T10:46:31.517Z,14.86
2018-10-19T10:49:00.872Z,14.97
2018-10-19T10:51:29.781Z,15.09
2018-10-19T10:53:59.021Z,15.19
2018-10-19T10:56:27.793Z,15.26
2018-10-19T10:58:56.687Z,15.33
2018-10-19T11:01:25.765Z,15.35
2018-10-19T11:03:54.925Z,15.38
2018-10-19T11:06:23.724Z,15.49
2018-10-19T11:08:52.634Z,15.58
2018-10-19T11:11:21.618Z,15.62
2018-10-19T11:13:50.417Z,15.61
2018-10-19T11:16:19.491Z,15.62
2018-10-19T11:18:48.365Z,15.64
2018-10-19T11:21:17.100Z,15.66
2018-10-19T11:23:46.782Z,15.69
2018-10-19T11:26:15.627Z,15.77
2018-10-19T11:28:44.473Z,15.77
2018-10-19T11:31:13.446Z,15.81
2018-10-19T11:33:42.251Z,15.78
2018-10-19T11:36:14.418Z,15.84
2018-10-19T11:38:43.504Z,15.89
2018-10-19T11:41:12.412Z,15.85
2018-10-19T11:43:41.184Z,15.76
2018-10-19T11:46:10.462Z,15.77
2018-10-19T11:48:39.411Z,15.81
2018-10-19T11:51:08.192Z,15.71
2018-10-19T11:53:36.974Z,15.72
2018-10-19T11:56:05.906Z,15.74
2018-10-19T11:58:34.843Z,15.76
2018-10-19T12:01:03.688Z,15.79
2018-10-19T12:03:32.485Z,15.84
2018-10-19T12:06:01.359Z,15.88
2018-10-19T12:08:30.743Z,15.93
2018-10-19T12:10:59.476Z,16.00
2018-10-19T12:13:28.358Z,16.09
2018-10-19T12:15:57.211Z,16.19
2018-10-19T12:18:25.967Z,16.17
2018-10-19T12:20:54.903Z,16.10
2018-10-19T12:23:23.674Z,16.07
2018-10-19T12:25:52.785Z,16.15
2018-10-19T12:28:21.852Z,16.28
2018-10-19T12:30:50.861Z,16.34
2018-10-19T12:33:19.715Z,16.37
2018-10-19T12:35:48.468Z,16.32
2018-10-19T12:38:18.034Z,16.31
2018-10-19T12:40:46.866Z,16.35
2018-10-19T12:43:15.833Z,16.32
2018-10-19T12:46:22.007Z,16.25
2018-10-19T12:48:51.142Z,16.27
2018-10-19T12:51:20.843Z,16.22
2018-10-19T12:53:50.047Z,16.09
2018-10-19T12:56:19.778Z,16.09
2018-10-19T12:58:49.613Z,16.12
2018-10-19T13:01:19.094Z,16.10
2018-10-19T13:03:47.974Z,15.99
2018-10-19T13:06:17.102Z,15.81
2018-10-19T13:08:45.858Z,15.72
2018-10-19T13:11:15.340Z,15.70
2018-10-19T13:13:44.789Z,15.73
2018-10-19T13:16:13.854Z,15.69
2018-10-19T13:18:42.782Z,15.63
2018-10-19T13:21:11.755Z,15.63
2018-10-19T13:23:40.866Z,15.60
2018-10-19T13:26:10.203Z,15.62
2018-10-19T13:28:39.087Z,15.67
2018-10-19T13:31:08.388Z,15.66
2018-10-19T13:33:37.232Z,15.63
2018-10-19T13:36:06.450Z,15.51
2018-10-19T13:38:35.546Z,15.53
2018-10-19T13:41:04.536Z,15.45
2018-10-19T13:43:33.676Z,15.38
2018-10-19T13:46:02.504Z,15.40
2018-10-19T13:48:31.306Z,15.43
2018-10-19T13:51:00.223Z,15.45
2018-10-19T13:53:29.396Z,15.47
2018-10-19T13:55:58.646Z,15.49
2018-10-19T13:58:27.814Z,15.63
2018-10-19T14:00:56.512Z,15.74
2018-10-19T14:03:25.334Z,15.86
2018-10-19T14:05:54.215Z,16.01
2018-10-19T14:08:23.204Z,16.15
2018-10-19T14:10:52.109Z,16.29
2018-10-19T14:13:21.390Z,16.47
2018-10-19T14:15:50.235Z,16.53
2018-10-19T14:18:19.352Z,16.59
2018-10-19T14:20:48.179Z,16.67
2018-10-19T14:23:17.286Z,16.83
2018-10-19T14:25:45.986Z,16.90
2018-10-19T14:28:15.191Z,16.97
2018-10-19T14:30:44.683Z,16.95
2018-10-19T14:33:13.502Z,16.90
2018-10-19T14:35:42.338Z,16.84
2018-10-19T14:38:11.778Z,16.72
2018-10-19T14:40:40.538Z,16.56
2018-10-19T14:43:09.589Z,16.44
2018-10-19T14:45:38.403Z,16.37
2018-10-19T14:48:07.246Z,16.30
2018-10-19T14:50:36.140Z,16.18
2018-10-19T14:53:05.451Z,16.11
2018-10-19T14:55:34.319Z,16.02
2018-10-19T14:58:03.355Z,15.98
2018-10-19T15:00:32.577Z,15.89
2018-10-19T15:03:01.960Z,15.83
2018-10-19T15:05:31.002Z,15.79
2018-10-19T15:08:00.479Z,15.78
2018-10-19T15:10:29.442Z,15.74
2018-10-19T15:12:58.255Z,15.71
2018-10-19T15:15:27.339Z,15.70
2018-10-19T15:17:56.664Z,15.62
2018-10-19T15:20:25.628Z,15.61
2018-10-19T15:22:54.465Z,15.52
2018-10-19T15:25:24.039Z,15.44
2018-10-19T15:27:52.812Z,15.36
2018-10-19T15:30:21.779Z,15.34
2018-10-19T15:32:50.878Z,15.28
2018-10-19T15:35:26.281Z,15.24
2018-10-19T15:37:55.111Z,15.15
2018-10-19T15:40:23.921Z,15.05
2018-10-19T15:42:52.861Z,15.02
2018-10-19T15:45:23.228Z,15.02
2018-10-19T15:47:52.163Z,14.96
2018-10-19T15:50:21.432Z,14.92
2018-10-19T15:52:50.566Z,14.90
2018-10-19T15:55:19.382Z,14.84
2018-10-19T15:57:48.240Z,14.80
2018-10-19T16:00:17.365Z,14.77
2018-10-19T16:02:46.278Z,14.78
2018-10-19T16:05:15.106Z,14.78
2018-10-19T16:07:44.391Z,14.72
2018-10-19T16:10:13.519Z,14.70
2018-10-19T16:12:42.433Z,14.63
2018-10-19T16:15:12.511Z,14.57
2018-10-19T16:17:41.336Z,14.51
2018-10-19T16:20:10.862Z,14.46
2018-10-19T16:22:39.672Z,14.32
2018-10-19T16:25:16.350Z,14.22
2018-10-19T16:27:45.425Z,14.11
2018-10-19T16:30:14.335Z,13.98
2018-10-19T16:32:43.168Z,13.94
2018-10-19T16:35:12.157Z,13.93
2018-10-19T16:37:41.019Z,13.86
2018-10-19T16:40:10.066Z,13.84
2018-10-19T16:42:38.842Z,13.82
2018-10-19T16:45:08.327Z,13.83
2018-10-19T16:47:37.038Z,13.79
2018-10-19T16:50:05.971Z,13.72
2018-10-19T16:52:34.819Z,13.68
2018-10-19T16:55:03.998Z,13.60
2018-10-19T16:57:33.398Z,13.53
2018-10-19T17:00:02.562Z,13.49
2018-10-19T17:02:31.632Z,13.46
2018-10-19T17:05:00.762Z,13.39
2018-10-19T17:07:29.682Z,13.33
2018-10-19T17:09:58.603Z,13.24
2018-10-19T17:12:27.678Z,13.16
2018-10-19T17:14:56.969Z,13.12
2018-10-19T17:17:26.073Z,13.05
2018-10-19T17:19:55.099Z,12.97
2018-10-19T17:22:24.397Z,12.92
2018-10-19T17:24:53.490Z,12.90
2018-10-19T17:27:22.841Z,12.87
2018-10-19T17:29:51.890Z,12.82
2018-10-19T17:32:20.955Z,12.78
2018-10-19T17:34:50.135Z,12.72
2018-10-19T17:37:20.148Z,12.64
2018-10-19T17:39:49.286Z,12.59
2018-10-19T17:42:18.592Z,12.56
2018-10-19T17:44:47.520Z,12.51
2018-10-19T17:47:16.422Z,12.50
2018-10-19T17:49:45.270Z,12.48
2018-10-19T17:52:14.432Z,12.41
2018-10-19T17:54:43.631Z,12.34
2018-10-19T17:57:12.621Z,12.28
2018-10-19T17:59:41.573Z,12.22
2018-10-19T18:02:10.754Z,12.17
2018-10-19T18:04:39.793Z,12.12
2018-10-19T18:07:09.323Z,12.08
2018-10-19T18:09:38.272Z,12.01
2018-10-19T18:12:07.039Z,11.98
2018-10-19T18:14:36.414Z,11.94
2018-10-19T18:17:05.531Z,11.91
2018-10-19T18:19:34.633Z,11.89
2018-10-19T18:22:03.556Z,11.85
2018-10-19T18:24:32.605Z,11.81
2018-10-19T18:27:01.362Z,11.76
2018-10-19T18:29:30.766Z,11.73
2018-10-19T18:31:59.975Z,11.68
2018-10-19T18:34:28.880Z,11.64
2018-10-19T18:36:58.019Z,11.60
2018-10-19T18:39:27.607Z,11.56
2018-10-19T18:41:56.704Z,11.50
2018-10-19T18:44:26.339Z,11.44
2018-10-19T18:46:56.084Z,11.41
2018-10-19T18:49:25.895Z,11.35
2018-10-19T18:51:56.242Z,11.30
2018-10-19T18:54:27.260Z,11.26
2018-10-19T18:56:58.284Z,11.22
2018-10-19T18:59:28.689Z,11.18
2018-10-19T19:01:59.278Z,11.14
2018-10-19T19:04:29.360Z,11.09
2018-10-19T19:06:59.387Z,11.06
2018-10-19T19:09:29.554Z,11.00
2018-10-19T19:12:00.311Z,10.94
2018-10-19T19:14:31.080Z,10.91
2018-10-19T19:17:01.769Z,10.88
2018-10-19T19:19:32.025Z,10.87
2018-10-19T19:22:02.900Z,10.85
2018-10-19T19:24:38.433Z,10.82
2018-10-19T19:27:08.553Z,10.79
2018-10-19T19:29:39.099Z,10.78
2018-10-19T19:32:09.212Z,10.76
2018-10-19T19:34:39.728Z,10.74
2018-10-19T19:37:09.401Z,10.71
2018-10-19T19:39:38.772Z,10.70
2018-10-19T19:43:12.712Z,10.67
2018-10-19T19:45:42.370Z,10.65
2018-10-19T19:48:16.633Z,10.62
2018-10-19T19:50:46.221Z,10.60
2018-10-19T19:53:16.803Z,10.59
2018-10-19T19:55:46.328Z,10.58
2018-10-19T19:58:15.285Z,10.57
2018-10-19T20:00:44.662Z,10.56
2018-10-19T20:03:13.455Z,10.55
2018-10-19T20:05:42.409Z,10.53
2018-10-19T20:08:11.554Z,10.48
2018-10-19T20:10:40.827Z,10.48
2018-10-19T20:13:09.570Z,10.47
2018-10-19T20:15:38.392Z,10.45
2018-10-19T20:18:07.776Z,10.41
2018-10-19T20:20:36.564Z,10.40
2018-10-19T20:23:05.856Z,10.39
2018-10-19T20:25:34.704Z,10.38
2018-10-19T20:28:03.610Z,10.37
2018-10-19T20:30:32.662Z,10.36
2018-10-19T20:33:01.503Z,10.34
2018-10-19T20:35:30.351Z,10.32
2018-10-19T20:37:59.823Z,10.28
2018-10-19T20:40:28.708Z,10.28
2018-10-19T20:42:57.876Z,10.24
2018-10-19T20:45:26.737Z,10.22
2018-10-19T20:47:55.590Z,10.20
2018-10-19T20:50:24.578Z,10.19
2018-10-19T20:52:53.678Z,10.16
2018-10-19T20:55:22.950Z,10.14
2018-10-19T20:57:51.739Z,10.09
2018-10-19T21:00:21.552Z,10.01
2018-10-19T21:02:50.310Z,9.95
2018-10-19T21:05:19.092Z,9.91
2018-10-19T21:07:54.127Z,9.87
2018-10-19T21:10:23.011Z,9.82
2018-10-19T21:12:51.901Z,9.77
2018-10-19T21:15:20.948Z,9.72
2018-10-19T21:17:49.840Z,9.65
2018-10-19T21:20:19.188Z,9.60
2018-10-19T21:22:47.961Z,9.56
2018-10-19T21:25:16.774Z,9.50
2018-10-19T21:27:46.185Z,9.45
2018-10-19T21:30:15.322Z,9.40
2018-10-19T21:32:44.130Z,9.36
2018-10-19T21:35:13.464Z,9.32
2018-10-19T21:37:44.073Z,9.27
2018-10-19T21:40:13.953Z,9.20
2018-10-19T21:42:43.730Z,9.15
2018-10-19T21:45:13.865Z,9.13
2018-10-19T21:47:43.706Z,9.09
2018-10-19T21:50:12.965Z,9.07
2018-10-19T21:52:41.890Z,9.05
2018-10-19T21:55:12.158Z,9.02
2018-10-19T21:57:41.127Z,9.00
2018-10-19T22:00:10.858Z,8.99
2018-10-19T22:02:39.610Z,8.97
2018-10-19T22:05:09.163Z,8.95
2018-10-19T22:07:38.020Z,8.93
2018-10-19T22:10:06.913Z,8.90
2018-10-19T22:12:35.834Z,8.87
2018-10-19T22:15:04.725Z,8.83
2018-10-19T22:17:33.794Z,8.78
2018-10-19T22:20:03.074Z,8.73
2018-10-19T22:22:31.826Z,8.66
2018-10-19T22:25:00.834Z,8.64
2018-10-19T22:27:30.280Z,8.60
2018-10-19T22:29:59.188Z,8.58
2018-10-19T22:32:28.085Z,8.52
2018-10-19T22:34:56.917Z,8.49
2018-10-19T22:37:25.780Z,8.45
2018-10-19T22:39:54.727Z,8.40
2018-10-19T22:42:23.782Z,8.37
2018-10-19T22:44:52.918Z,8.32
2018-10-19T22:47:21.879Z,8.27
2018-10-19T22:49:51.042Z,8.23
2018-10-19T22:52:19.795Z,8.21
2018-10-19T22:54:49.142Z,8.17
2018-10-19T22:57:18.351Z,8.15
2018-10-19T22:59:47.396Z,8.12
2018-10-19T23:02:16.511Z,8.08
2018-10-19T23:04:45.647Z,8.04
2018-10-19T23:07:14.578Z,7.99
2018-10-19T23:09:43.860Z,7.94
2018-10-19T23:12:12.707Z,7.90
2018-10-19T23:14:41.530Z,7.84
2018-10-19T23:17:11.267Z,7.78
2018-10-19T23:19:40.298Z,7.73
2018-10-19T23:22:10.011Z,7.69
2018-10-19T23:24:39.206Z,7.66
2018-10-19T23:27:08.308Z,7.63
2018-10-19T23:29:37.061Z,7.57
2018-10-19T23:32:06.136Z,7.54
2018-10-19T23:34:34.965Z,7.46
2018-10-19T23:37:03.852Z,7.44
2018-10-19T23:39:35.676Z,7.40
2018-10-19T23:42:04.580Z,7.36
2018-10-19T23:44:33.574Z,7.32
2018-10-19T23:47:02.396Z,7.29
2018-10-19T23:49:31.495Z,7.26
2018-10-19T23:52:00.207Z,7.23
2018-10-19T23:54:29.420Z,7.18
2018-10-19T23:56:58.271Z,7.07
2018-10-19T23:59:27.142Z,7.06
